sensor_id;sensor_type;location;lat;lon;timestamp;temperature;humidity
69054;DHT22;56125;52.242;4.756;2022-08-26T00:04:54;23.90;67.10
69054;DHT22;56125;52.242;4.756;2022-08-26T00:09:55;23.90;67.10
69054;DHT22;56125;52.242;4.756;2022-08-26T00:14:56;23.90;67.10
69054;DHT22;56125;52.242;4.756;2022-08-26T00:19:57;23.90;67.20
69054;DHT22;56125;52.242;4.756;2022-08-26T00:24:58;23.90;66.90
69054;DHT22;56125;52.242;4.756;2022-08-26T00:30:00;23.90;67.00
69054;DHT22;56125;52.242;4.756;2022-08-26T00:35:02;23.90;67.00
69054;DHT22;56125;52.242;4.756;2022-08-26T00:40:06;23.80;67.10
69054;DHT22;56125;52.242;4.756;2022-08-26T00:45:07;23.80;67.00
69054;DHT22;56125;52.242;4.756;2022-08-26T00:50:12;23.80;67.20
69054;DHT22;56125;52.242;4.756;2022-08-26T00:55:17;23.80;67.10
69054;DHT22;56125;52.242;4.756;2022-08-26T01:00:25;23.80;67.10
69054;DHT22;56125;52.242;4.756;2022-08-26T01:05:27;23.80;67.00
69054;DHT22;56125;52.242;4.756;2022-08-26T01:10:29;23.80;67.10
69054;DHT22;56125;52.242;4.756;2022-08-26T01:15:36;23.80;67.10
69054;DHT22;56125;52.242;4.756;2022-08-26T01:21:13;23.80;66.90
69054;DHT22;56125;52.242;4.756;2022-08-26T01:26:34;23.80;66.90
69054;DHT22;56125;52.242;4.756;2022-08-26T01:31:41;23.80;66.80
69054;DHT22;56125;52.242;4.756;2022-08-26T01:36:44;23.70;67.00
69054;DHT22;56125;52.242;4.756;2022-08-26T01:41:47;23.80;66.90
69054;DHT22;56125;52.242;4.756;2022-08-26T01:46:50;23.80;67.00
69054;DHT22;56125;52.242;4.756;2022-08-26T01:51:54;23.80;67.00
69054;DHT22;56125;52.242;4.756;2022-08-26T01:56:56;23.80;66.80
69054;DHT22;56125;52.242;4.756;2022-08-26T02:01:58;23.80;66.70
69054;DHT22;56125;52.242;4.756;2022-08-26T02:07:03;23.80;66.80
69054;DHT22;56125;52.242;4.756;2022-08-26T02:12:05;23.80;66.70
69054;DHT22;56125;52.242;4.756;2022-08-26T02:17:07;23.80;66.60
69054;DHT22;56125;52.242;4.756;2022-08-26T02:22:13;23.80;66.80
69054;DHT22;56125;52.242;4.756;2022-08-26T02:27:19;23.80;66.70
69054;DHT22;56125;52.242;4.756;2022-08-26T02:32:21;23.80;66.60
69054;DHT22;56125;52.242;4.756;2022-08-26T02:37:23;23.80;66.50
69054;DHT22;56125;52.242;4.756;2022-08-26T02:42:27;23.70;66.40
69054;DHT22;56125;52.242;4.756;2022-08-26T02:47:28;23.80;66.50
69054;DHT22;56125;52.242;4.756;2022-08-26T02:52:31;23.70;66.40
69054;DHT22;56125;52.242;4.756;2022-08-26T02:57:32;23.70;66.30
69054;DHT22;56125;52.242;4.756;2022-08-26T03:02:33;23.80;66.30
69054;DHT22;56125;52.242;4.756;2022-08-26T03:07:34;23.80;66.30
69054;DHT22;56125;52.242;4.756;2022-08-26T03:12:36;23.70;66.20
69054;DHT22;56125;52.242;4.756;2022-08-26T03:17:37;23.70;66.10
69054;DHT22;56125;52.242;4.756;2022-08-26T03:22:38;23.80;65.90
69054;DHT22;56125;52.242;4.756;2022-08-26T03:27:39;23.80;66.00
69054;DHT22;56125;52.242;4.756;2022-08-26T03:32:41;23.80;66.00
69054;DHT22;56125;52.242;4.756;2022-08-26T03:37:42;23.70;65.90
69054;DHT22;56125;52.242;4.756;2022-08-26T03:42:43;23.80;66.00
69054;DHT22;56125;52.242;4.756;2022-08-26T03:47:45;23.70;65.90
69054;DHT22;56125;52.242;4.756;2022-08-26T03:52:47;23.70;66.20
69054;DHT22;56125;52.242;4.756;2022-08-26T03:57:49;23.70;66.30
69054;DHT22;56125;52.242;4.756;2022-08-26T04:02:50;23.70;66.30
69054;DHT22;56125;52.242;4.756;2022-08-26T04:07:51;23.70;66.30
69054;DHT22;56125;52.242;4.756;2022-08-26T04:12:52;23.60;66.30
69054;DHT22;56125;52.242;4.756;2022-08-26T04:17:53;23.60;66.20
69054;DHT22;56125;52.242;4.756;2022-08-26T04:22:54;23.60;66.20
69054;DHT22;56125;52.242;4.756;2022-08-26T04:27:55;23.60;66.20
69054;DHT22;56125;52.242;4.756;2022-08-26T04:32:57;23.60;66.20
69054;DHT22;56125;52.242;4.756;2022-08-26T04:37:58;23.50;65.90
69054;DHT22;56125;52.242;4.756;2022-08-26T04:42:59;23.60;65.90
69054;DHT22;56125;52.242;4.756;2022-08-26T04:48:01;23.60;65.50
69054;DHT22;56125;52.242;4.756;2022-08-26T04:53:02;23.60;65.50
69054;DHT22;56125;52.242;4.756;2022-08-26T04:58:04;23.60;65.50
69054;DHT22;56125;52.242;4.756;2022-08-26T05:03:08;23.60;65.50
69054;DHT22;56125;52.242;4.756;2022-08-26T05:08:10;23.60;65.50
69054;DHT22;56125;52.242;4.756;2022-08-26T05:13:13;23.60;65.50
69054;DHT22;56125;52.242;4.756;2022-08-26T05:18:19;23.50;65.50
69054;DHT22;56125;52.242;4.756;2022-08-26T05:23:22;23.50;65.50
69054;DHT22;56125;52.242;4.756;2022-08-26T05:28:24;23.50;65.50
69054;DHT22;56125;52.242;4.756;2022-08-26T05:33:25;23.50;65.40
69054;DHT22;56125;52.242;4.756;2022-08-26T05:38:26;23.60;65.50
69054;DHT22;56125;52.242;4.756;2022-08-26T05:43:27;23.50;65.50
69054;DHT22;56125;52.242;4.756;2022-08-26T05:48:28;23.60;65.50
69054;DHT22;56125;52.242;4.756;2022-08-26T05:53:30;23.60;65.30
69054;DHT22;56125;52.242;4.756;2022-08-26T05:58:33;23.60;64.90
69054;DHT22;56125;52.242;4.756;2022-08-26T06:03:36;23.60;64.90
69054;DHT22;56125;52.242;4.756;2022-08-26T06:08:38;23.50;64.60
69054;DHT22;56125;52.242;4.756;2022-08-26T06:13:40;23.50;64.70
69054;DHT22;56125;52.242;4.756;2022-08-26T06:18:43;23.50;64.70
69054;DHT22;56125;52.242;4.756;2022-08-26T06:23:46;23.50;64.50
69054;DHT22;56125;52.242;4.756;2022-08-26T06:29:06;23.50;64.40
69054;DHT22;56125;52.242;4.756;2022-08-26T06:34:07;23.50;64.40
69054;DHT22;56125;52.242;4.756;2022-08-26T06:39:10;23.50;64.40
69054;DHT22;56125;52.242;4.756;2022-08-26T06:44:13;23.50;64.50
69054;DHT22;56125;52.242;4.756;2022-08-26T06:49:14;23.50;64.50
69054;DHT22;56125;52.242;4.756;2022-08-26T06:54:16;23.50;64.50
69054;DHT22;56125;52.242;4.756;2022-08-26T06:59:17;23.40;64.20
69054;DHT22;56125;52.242;4.756;2022-08-26T07:04:19;23.40;64.00
69054;DHT22;56125;52.242;4.756;2022-08-26T07:09:22;23.40;63.80
69054;DHT22;56125;52.242;4.756;2022-08-26T07:14:23;23.50;64.10
69054;DHT22;56125;52.242;4.756;2022-08-26T07:19:25;23.50;64.10
69054;DHT22;56125;52.242;4.756;2022-08-26T07:24:26;23.50;64.10
69054;DHT22;56125;52.242;4.756;2022-08-26T07:29:28;23.50;64.10
69054;DHT22;56125;52.242;4.756;2022-08-26T07:34:29;23.40;63.70
69054;DHT22;56125;52.242;4.756;2022-08-26T07:39:32;23.40;63.80
69054;DHT22;56125;52.242;4.756;2022-08-26T07:44:33;23.40;64.70
69054;DHT22;56125;52.242;4.756;2022-08-26T07:49:35;23.40;63.40
69054;DHT22;56125;52.242;4.756;2022-08-26T07:54:37;23.30;62.40
69054;DHT22;56125;52.242;4.756;2022-08-26T07:59:40;23.30;62.60
69054;DHT22;56125;52.242;4.756;2022-08-26T08:04:41;23.30;62.30
69054;DHT22;56125;52.242;4.756;2022-08-26T08:09:42;23.10;63.00
69054;DHT22;56125;52.242;4.756;2022-08-26T08:14:43;23.20;63.40
69054;DHT22;56125;52.242;4.756;2022-08-26T08:19:46;23.10;63.60
69054;DHT22;56125;52.242;4.756;2022-08-26T08:24:47;23.00;63.70
69054;DHT22;56125;52.242;4.756;2022-08-26T08:29:49;22.90;63.90
69054;DHT22;56125;52.242;4.756;2022-08-26T08:34:54;23.00;64.10
69054;DHT22;56125;52.242;4.756;2022-08-26T08:39:55;22.90;63.90
69054;DHT22;56125;52.242;4.756;2022-08-26T08:45:00;22.90;64.20
69054;DHT22;56125;52.242;4.756;2022-08-26T08:55:13;23.10;63.40
69054;DHT22;56125;52.242;4.756;2022-08-26T09:00:17;23.10;63.10
69054;DHT22;56125;52.242;4.756;2022-08-26T09:05:22;23.00;62.70
69054;DHT22;56125;52.242;4.756;2022-08-26T09:16:00;23.10;62.80
69054;DHT22;56125;52.242;4.756;2022-08-26T09:21:06;23.20;62.60
69054;DHT22;56125;52.242;4.756;2022-08-26T09:26:21;23.20;62.70
69054;DHT22;56125;52.242;4.756;2022-08-26T09:31:27;23.20;62.20
69054;DHT22;56125;52.242;4.756;2022-08-26T09:36:58;23.10;61.50
69054;DHT22;56125;52.242;4.756;2022-08-26T09:42:09;23.10;62.20
69054;DHT22;56125;52.242;4.756;2022-08-26T09:47:11;22.90;63.00
69054;DHT22;56125;52.242;4.756;2022-08-26T09:52:21;22.90;63.50
69054;DHT22;56125;52.242;4.756;2022-08-26T09:57:29;22.90;63.40
69054;DHT22;56125;52.242;4.756;2022-08-26T10:13:03;22.90;63.60
69054;DHT22;56125;52.242;4.756;2022-08-26T10:18:17;22.80;63.80
69054;DHT22;56125;52.242;4.756;2022-08-26T10:23:24;22.80;63.70
69054;DHT22;56125;52.242;4.756;2022-08-26T10:28:30;22.70;63.30
69054;DHT22;56125;52.242;4.756;2022-08-26T10:33:32;22.80;62.70
69054;DHT22;56125;52.242;4.756;2022-08-26T10:38:36;22.70;62.80
69054;DHT22;56125;52.242;4.756;2022-08-26T10:44:06;22.70;62.90
69054;DHT22;56125;52.242;4.756;2022-08-26T10:49:13;22.70;62.90
69054;DHT22;56125;52.242;4.756;2022-08-26T10:54:38;22.80;62.70
69054;DHT22;56125;52.242;4.756;2022-08-26T11:05:08;23.00;62.30
69054;DHT22;56125;52.242;4.756;2022-08-26T11:25:24;22.80;62.40
69054;DHT22;56125;52.242;4.756;2022-08-26T11:30:36;22.90;62.00
69054;DHT22;56125;52.242;4.756;2022-08-26T11:35:45;22.90;62.20
69054;DHT22;56125;52.242;4.756;2022-08-26T11:40:56;23.00;61.80
69054;DHT22;56125;52.242;4.756;2022-08-26T11:46:10;23.00;61.60
69054;DHT22;56125;52.242;4.756;2022-08-26T12:01:34;23.00;61.20
69054;DHT22;56125;52.242;4.756;2022-08-26T12:06:43;23.00;61.30
69054;DHT22;56125;52.242;4.756;2022-08-26T12:11:45;23.10;61.30
69054;DHT22;56125;52.242;4.756;2022-08-26T12:16:46;23.00;60.60
69054;DHT22;56125;52.242;4.756;2022-08-26T12:21:49;23.00;61.30
69054;DHT22;56125;52.242;4.756;2022-08-26T12:27:10;23.00;62.20
69054;DHT22;56125;52.242;4.756;2022-08-26T12:32:15;22.90;61.20
69054;DHT22;56125;52.242;4.756;2022-08-26T12:37:17;22.90;61.00
69054;DHT22;56125;52.242;4.756;2022-08-26T12:47:30;22.80;61.30
69054;DHT22;56125;52.242;4.756;2022-08-26T12:52:38;22.80;61.00
69054;DHT22;56125;52.242;4.756;2022-08-26T12:57:40;22.70;61.60
69054;DHT22;56125;52.242;4.756;2022-08-26T13:02:41;22.90;61.60
69054;DHT22;56125;52.242;4.756;2022-08-26T13:07:42;22.90;61.10
69054;DHT22;56125;52.242;4.756;2022-08-26T13:12:43;22.90;60.80
69054;DHT22;56125;52.242;4.756;2022-08-26T13:17:44;22.90;60.80
69054;DHT22;56125;52.242;4.756;2022-08-26T13:22:47;22.90;61.00
69054;DHT22;56125;52.242;4.756;2022-08-26T13:27:49;22.90;60.50
69054;DHT22;56125;52.242;4.756;2022-08-26T13:32:54;23.00;60.50
69054;DHT22;56125;52.242;4.756;2022-08-26T13:37:56;22.80;60.30
69054;DHT22;56125;52.242;4.756;2022-08-26T13:42:58;22.80;60.90
69054;DHT22;56125;52.242;4.756;2022-08-26T13:47:59;22.80;60.80
69054;DHT22;56125;52.242;4.756;2022-08-26T13:53:00;22.80;60.70
69054;DHT22;56125;52.242;4.756;2022-08-26T13:58:01;22.90;60.70
69054;DHT22;56125;52.242;4.756;2022-08-26T14:03:03;22.90;60.50
69054;DHT22;56125;52.242;4.756;2022-08-26T14:08:04;23.00;60.30
69054;DHT22;56125;52.242;4.756;2022-08-26T14:13:05;22.90;60.00
69054;DHT22;56125;52.242;4.756;2022-08-26T14:18:08;22.90;60.20
69054;DHT22;56125;52.242;4.756;2022-08-26T14:23:09;22.90;59.20
69054;DHT22;56125;52.242;4.756;2022-08-26T14:28:10;22.90;60.00
69054;DHT22;56125;52.242;4.756;2022-08-26T14:33:13;22.90;59.40
69054;DHT22;56125;52.242;4.756;2022-08-26T14:38:14;22.90;60.00
69054;DHT22;56125;52.242;4.756;2022-08-26T14:43:16;23.00;59.90
69054;DHT22;56125;52.242;4.756;2022-08-26T14:48:17;22.90;60.50
69054;DHT22;56125;52.242;4.756;2022-08-26T14:53:18;23.00;59.30
69054;DHT22;56125;52.242;4.756;2022-08-26T14:58:38;22.90;58.80
69054;DHT22;56125;52.242;4.756;2022-08-26T15:03:39;22.90;58.70
69054;DHT22;56125;52.242;4.756;2022-08-26T15:08:41;22.90;58.20
69054;DHT22;56125;52.242;4.756;2022-08-26T15:13:42;22.80;57.90
69054;DHT22;56125;52.242;4.756;2022-08-26T15:18:43;22.90;57.80
69054;DHT22;56125;52.242;4.756;2022-08-26T15:23:45;22.90;58.60
69054;DHT22;56125;52.242;4.756;2022-08-26T15:28:47;22.90;57.90
69054;DHT22;56125;52.242;4.756;2022-08-26T15:33:48;22.80;58.40
69054;DHT22;56125;52.242;4.756;2022-08-26T15:38:52;22.90;58.40
69054;DHT22;56125;52.242;4.756;2022-08-26T15:43:53;22.90;58.20
69054;DHT22;56125;52.242;4.756;2022-08-26T15:48:54;22.90;57.70
69054;DHT22;56125;52.242;4.756;2022-08-26T15:53:55;22.90;57.50
69054;DHT22;56125;52.242;4.756;2022-08-26T15:58:58;22.90;56.60
69054;DHT22;56125;52.242;4.756;2022-08-26T16:03:59;22.90;56.80
69054;DHT22;56125;52.242;4.756;2022-08-26T16:09:00;22.90;56.20
69054;DHT22;56125;52.242;4.756;2022-08-26T16:14:01;22.80;56.20
69054;DHT22;56125;52.242;4.756;2022-08-26T16:19:05;22.90;56.70
69054;DHT22;56125;52.242;4.756;2022-08-26T16:24:06;22.90;56.60
69054;DHT22;56125;52.242;4.756;2022-08-26T16:29:11;22.90;55.40
69054;DHT22;56125;52.242;4.756;2022-08-26T16:34:12;22.90;55.20
69054;DHT22;56125;52.242;4.756;2022-08-26T16:39:13;22.90;55.80
69054;DHT22;56125;52.242;4.756;2022-08-26T16:44:14;22.90;56.10
69054;DHT22;56125;52.242;4.756;2022-08-26T16:49:15;22.90;56.10
69054;DHT22;56125;52.242;4.756;2022-08-26T16:54:16;23.00;55.80
69054;DHT22;56125;52.242;4.756;2022-08-26T16:59:17;22.90;55.40
69054;DHT22;56125;52.242;4.756;2022-08-26T17:04:19;22.90;55.80
69054;DHT22;56125;52.242;4.756;2022-08-26T17:09:21;22.90;55.80
69054;DHT22;56125;52.242;4.756;2022-08-26T17:14:22;23.00;55.60
69054;DHT22;56125;52.242;4.756;2022-08-26T17:19:23;22.90;55.20
69054;DHT22;56125;52.242;4.756;2022-08-26T17:24:25;23.00;56.00
69054;DHT22;56125;52.242;4.756;2022-08-26T17:29:26;23.00;54.90
69054;DHT22;56125;52.242;4.756;2022-08-26T17:34:27;22.90;54.90
69054;DHT22;56125;52.242;4.756;2022-08-26T17:39:28;22.90;55.30
69054;DHT22;56125;52.242;4.756;2022-08-26T17:44:29;22.80;55.20
69054;DHT22;56125;52.242;4.756;2022-08-26T17:49:30;22.80;55.30
69054;DHT22;56125;52.242;4.756;2022-08-26T17:54:31;22.80;55.20
69054;DHT22;56125;52.242;4.756;2022-08-26T17:59:32;22.70;55.30
69054;DHT22;56125;52.242;4.756;2022-08-26T18:04:33;22.80;55.30
69054;DHT22;56125;52.242;4.756;2022-08-26T18:09:34;22.80;54.70
69054;DHT22;56125;52.242;4.756;2022-08-26T18:14:36;22.70;55.10
69054;DHT22;56125;52.242;4.756;2022-08-26T18:19:37;22.70;55.20
69054;DHT22;56125;52.242;4.756;2022-08-26T18:24:38;22.70;54.80
69054;DHT22;56125;52.242;4.756;2022-08-26T18:29:39;22.70;54.80
69054;DHT22;56125;52.242;4.756;2022-08-26T18:34:41;22.70;54.50
69054;DHT22;56125;52.242;4.756;2022-08-26T18:39:42;22.70;54.40
69054;DHT22;56125;52.242;4.756;2022-08-26T18:44:43;22.60;54.20
69054;DHT22;56125;52.242;4.756;2022-08-26T18:49:44;22.50;53.70
69054;DHT22;56125;52.242;4.756;2022-08-26T18:54:46;22.50;54.10
69054;DHT22;56125;52.242;4.756;2022-08-26T18:59:47;22.50;54.30
69054;DHT22;56125;52.242;4.756;2022-08-26T19:04:48;22.60;54.70
69054;DHT22;56125;52.242;4.756;2022-08-26T19:09:49;22.70;54.70
69054;DHT22;56125;52.242;4.756;2022-08-26T19:14:50;22.70;55.40
69054;DHT22;56125;52.242;4.756;2022-08-26T19:19:51;22.60;54.50
69054;DHT22;56125;52.242;4.756;2022-08-26T19:24:53;22.40;54.60
69054;DHT22;56125;52.242;4.756;2022-08-26T19:29:54;22.40;54.90
69054;DHT22;56125;52.242;4.756;2022-08-26T19:34:57;22.40;55.20
69054;DHT22;56125;52.242;4.756;2022-08-26T19:39:58;22.50;55.30
69054;DHT22;56125;52.242;4.756;2022-08-26T19:44:59;22.50;55.30
69054;DHT22;56125;52.242;4.756;2022-08-26T19:50:11;22.40;55.20
69054;DHT22;56125;52.242;4.756;2022-08-26T19:55:14;22.20;55.40
69054;DHT22;56125;52.242;4.756;2022-08-26T20:00:18;22.30;55.60
69054;DHT22;56125;52.242;4.756;2022-08-26T20:05:21;22.10;55.50
69054;DHT22;56125;52.242;4.756;2022-08-26T20:10:23;22.20;55.60
69054;DHT22;56125;52.242;4.756;2022-08-26T20:15:24;22.20;55.50
69054;DHT22;56125;52.242;4.756;2022-08-26T20:20:25;22.30;55.30
69054;DHT22;56125;52.242;4.756;2022-08-26T20:25:45;22.30;55.30
69054;DHT22;56125;52.242;4.756;2022-08-26T20:30:46;22.30;55.20
69054;DHT22;56125;52.242;4.756;2022-08-26T20:35:47;22.30;55.30
69054;DHT22;56125;52.242;4.756;2022-08-26T20:40:48;22.20;55.50
69054;DHT22;56125;52.242;4.756;2022-08-26T20:45:50;22.20;55.50
69054;DHT22;56125;52.242;4.756;2022-08-26T20:50:55;22.20;55.60
69054;DHT22;56125;52.242;4.756;2022-08-26T20:56:01;22.20;55.80
69054;DHT22;56125;52.242;4.756;2022-08-26T21:01:03;22.20;55.70
69054;DHT22;56125;52.242;4.756;2022-08-26T21:06:05;22.20;55.50
69054;DHT22;56125;52.242;4.756;2022-08-26T21:11:06;22.20;55.60
69054;DHT22;56125;52.242;4.756;2022-08-26T21:16:07;22.20;55.90
69054;DHT22;56125;52.242;4.756;2022-08-26T21:21:09;22.20;56.00
69054;DHT22;56125;52.242;4.756;2022-08-26T21:26:11;22.20;56.10
69054;DHT22;56125;52.242;4.756;2022-08-26T21:31:15;22.20;55.90
69054;DHT22;56125;52.242;4.756;2022-08-26T21:36:17;22.30;56.10
69054;DHT22;56125;52.242;4.756;2022-08-26T21:41:19;22.20;56.00
69054;DHT22;56125;52.242;4.756;2022-08-26T21:46:22;22.20;56.00
69054;DHT22;56125;52.242;4.756;2022-08-26T21:51:29;22.20;55.90
69054;DHT22;56125;52.242;4.756;2022-08-26T21:56:32;22.20;55.60
69054;DHT22;56125;52.242;4.756;2022-08-26T22:01:34;22.20;55.80
69054;DHT22;56125;52.242;4.756;2022-08-26T22:06:41;22.20;55.90
69054;DHT22;56125;52.242;4.756;2022-08-26T22:11:43;22.20;56.00
69054;DHT22;56125;52.242;4.756;2022-08-26T22:16:44;22.20;56.10
69054;DHT22;56125;52.242;4.756;2022-08-26T22:21:46;22.20;56.00
69054;DHT22;56125;52.242;4.756;2022-08-26T22:26:49;22.20;56.20
69054;DHT22;56125;52.242;4.756;2022-08-26T22:31:51;22.20;56.20
69054;DHT22;56125;52.242;4.756;2022-08-26T22:36:52;22.20;56.30
69054;DHT22;56125;52.242;4.756;2022-08-26T22:41:53;22.20;56.10
69054;DHT22;56125;52.242;4.756;2022-08-26T22:46:54;22.20;56.20
69054;DHT22;56125;52.242;4.756;2022-08-26T22:51:56;22.20;56.30
69054;DHT22;56125;52.242;4.756;2022-08-26T22:56:57;22.20;56.40
69054;DHT22;56125;52.242;4.756;2022-08-26T23:01:58;22.20;56.40
69054;DHT22;56125;52.242;4.756;2022-08-26T23:06:59;22.20;56.60
69054;DHT22;56125;52.242;4.756;2022-08-26T23:12:01;22.20;56.60
69054;DHT22;56125;52.242;4.756;2022-08-26T23:17:02;22.20;56.70
69054;DHT22;56125;52.242;4.756;2022-08-26T23:22:03;22.20;56.60
69054;DHT22;56125;52.242;4.756;2022-08-26T23:27:04;22.20;56.70
69054;DHT22;56125;52.242;4.756;2022-08-26T23:32:05;22.20;56.70
69054;DHT22;56125;52.242;4.756;2022-08-26T23:37:06;22.20;56.80
69054;DHT22;56125;52.242;4.756;2022-08-26T23:42:08;22.20;56.80
69054;DHT22;56125;52.242;4.756;2022-08-26T23:47:10;22.20;56.80
69054;DHT22;56125;52.242;4.756;2022-08-26T23:52:11;22.20;56.90
69054;DHT22;56125;52.242;4.756;2022-08-26T23:57:32;22.20;56.90
